sensor_id;sensor_type;location;lat;lon;timestamp;temperature;humidity
17066;DHT22;23120;52.336;21.182;2023-06-14T00:00:40;13.80;93.90
17066;DHT22;23120;52.336;21.182;2023-06-14T00:03:10;13.80;94.20
17066;DHT22;23120;52.336;21.182;2023-06-14T00:05:38;13.80;93.70
17066;DHT22;23120;52.336;21.182;2023-06-14T00:08:09;13.80;93.70
17066;DHT22;23120;52.336;21.182;2023-06-14T00:10:36;13.90;94.10
17066;DHT22;23120;52.336;21.182;2023-06-14T00:13:04;13.80;93.70
17066;DHT22;23120;52.336;21.182;2023-06-14T00:15:33;13.80;94.30
17066;DHT22;23120;52.336;21.182;2023-06-14T00:18:00;13.80;94.70
17066;DHT22;23120;52.336;21.182;2023-06-14T00:20:29;13.70;94.70
17066;DHT22;23120;52.336;21.182;2023-06-14T00:22:58;13.70;94.80
17066;DHT22;23120;52.336;21.182;2023-06-14T00:25:25;13.70;94.90
17066;DHT22;23120;52.336;21.182;2023-06-14T00:27:52;13.70;95.00
17066;DHT22;23120;52.336;21.182;2023-06-14T00:30:20;13.70;95.40
17066;DHT22;23120;52.336;21.182;2023-06-14T00:32:47;13.70;95.30
17066;DHT22;23120;52.336;21.182;2023-06-14T00:35:14;13.70;95.20
17066;DHT22;23120;52.336;21.182;2023-06-14T00:37:42;13.80;95.10
17066;DHT22;23120;52.336;21.182;2023-06-14T00:40:09;13.70;94.90
17066;DHT22;23120;52.336;21.182;2023-06-14T00:42:37;13.70;95.10
17066;DHT22;23120;52.336;21.182;2023-06-14T00:45:04;13.70;95.20
17066;DHT22;23120;52.336;21.182;2023-06-14T00:47:31;13.70;95.30
17066;DHT22;23120;52.336;21.182;2023-06-14T00:49:59;13.70;95.50
17066;DHT22;23120;52.336;21.182;2023-06-14T00:52:26;13.70;95.30
17066;DHT22;23120;52.336;21.182;2023-06-14T00:54:56;13.70;95.40
17066;DHT22;23120;52.336;21.182;2023-06-14T00:57:23;13.70;95.30
17066;DHT22;23120;52.336;21.182;2023-06-14T00:59:50;13.70;95.50
17066;DHT22;23120;52.336;21.182;2023-06-14T01:02:17;13.60;95.70
17066;DHT22;23120;52.336;21.182;2023-06-14T01:04:46;13.60;96.30
17066;DHT22;23120;52.336;21.182;2023-06-14T01:07:21;13.60;96.30
17066;DHT22;23120;52.336;21.182;2023-06-14T01:10:03;13.60;95.90
17066;DHT22;23120;52.336;21.182;2023-06-14T01:12:36;13.60;96.30
17066;DHT22;23120;52.336;21.182;2023-06-14T01:15:04;13.60;96.10
17066;DHT22;23120;52.336;21.182;2023-06-14T01:17:32;13.60;96.30
17066;DHT22;23120;52.336;21.182;2023-06-14T01:20:01;13.60;96.70
17066;DHT22;23120;52.336;21.182;2023-06-14T01:22:28;13.50;96.60
17066;DHT22;23120;52.336;21.182;2023-06-14T01:24:57;13.50;97.00
17066;DHT22;23120;52.336;21.182;2023-06-14T01:27:25;13.50;96.60
17066;DHT22;23120;52.336;21.182;2023-06-14T01:29:55;13.60;96.80
17066;DHT22;23120;52.336;21.182;2023-06-14T01:32:23;13.60;96.50
17066;DHT22;23120;52.336;21.182;2023-06-14T01:34:51;13.60;96.30
17066;DHT22;23120;52.336;21.182;2023-06-14T01:37:19;13.60;96.00
17066;DHT22;23120;52.336;21.182;2023-06-14T01:39:47;13.50;96.10
17066;DHT22;23120;52.336;21.182;2023-06-14T01:42:20;13.60;96.30
17066;DHT22;23120;52.336;21.182;2023-06-14T01:44:47;13.60;96.20
17066;DHT22;23120;52.336;21.182;2023-06-14T01:47:14;13.60;96.20
17066;DHT22;23120;52.336;21.182;2023-06-14T01:49:42;13.60;95.90
17066;DHT22;23120;52.336;21.182;2023-06-14T01:52:08;13.60;96.00
17066;DHT22;23120;52.336;21.182;2023-06-14T01:54:35;13.60;95.90
17066;DHT22;23120;52.336;21.182;2023-06-14T01:57:07;13.60;96.00
17066;DHT22;23120;52.336;21.182;2023-06-14T01:59:38;13.60;96.00
17066;DHT22;23120;52.336;21.182;2023-06-14T02:02:05;13.60;95.80
17066;DHT22;23120;52.336;21.182;2023-06-14T02:04:32;13.60;95.80
17066;DHT22;23120;52.336;21.182;2023-06-14T02:06:58;13.60;95.90
17066;DHT22;23120;52.336;21.182;2023-06-14T02:09:25;13.60;95.90
17066;DHT22;23120;52.336;21.182;2023-06-14T02:11:54;13.60;95.70
17066;DHT22;23120;52.336;21.182;2023-06-14T02:14:20;13.60;95.60
17066;DHT22;23120;52.336;21.182;2023-06-14T02:16:49;13.70;95.50
17066;DHT22;23120;52.336;21.182;2023-06-14T02:19:16;13.70;95.30
17066;DHT22;23120;52.336;21.182;2023-06-14T02:21:43;13.70;95.30
17066;DHT22;23120;52.336;21.182;2023-06-14T02:24:12;13.70;95.30
17066;DHT22;23120;52.336;21.182;2023-06-14T02:26:40;13.70;95.40
17066;DHT22;23120;52.336;21.182;2023-06-14T02:29:08;13.70;95.20
17066;DHT22;23120;52.336;21.182;2023-06-14T02:31:36;13.70;95.80
17066;DHT22;23120;52.336;21.182;2023-06-14T02:34:04;13.60;96.20
17066;DHT22;23120;52.336;21.182;2023-06-14T02:36:34;13.60;96.30
17066;DHT22;23120;52.336;21.182;2023-06-14T02:39:07;13.70;96.00
17066;DHT22;23120;52.336;21.182;2023-06-14T02:41:35;13.70;95.70
17066;DHT22;23120;52.336;21.182;2023-06-14T02:44:01;13.70;95.30
17066;DHT22;23120;52.336;21.182;2023-06-14T02:46:28;13.70;95.40
17066;DHT22;23120;52.336;21.182;2023-06-14T02:48:55;13.70;95.20
17066;DHT22;23120;52.336;21.182;2023-06-14T02:51:23;13.70;95.00
17066;DHT22;23120;52.336;21.182;2023-06-14T02:53:50;13.70;95.20
17066;DHT22;23120;52.336;21.182;2023-06-14T02:56:17;13.80;94.90
17066;DHT22;23120;52.336;21.182;2023-06-14T02:58:45;13.80;95.00
17066;DHT22;23120;52.336;21.182;2023-06-14T03:01:14;13.70;94.90
17066;DHT22;23120;52.336;21.182;2023-06-14T03:03:41;13.70;95.20
17066;DHT22;23120;52.336;21.182;2023-06-14T03:06:08;13.70;95.20
17066;DHT22;23120;52.336;21.182;2023-06-14T03:08:41;13.80;95.00
17066;DHT22;23120;52.336;21.182;2023-06-14T03:11:13;13.80;95.60
17066;DHT22;23120;52.336;21.182;2023-06-14T03:13:40;13.80;94.90
17066;DHT22;23120;52.336;21.182;2023-06-14T03:16:07;13.70;95.20
17066;DHT22;23120;52.336;21.182;2023-06-14T03:18:38;13.70;95.20
17066;DHT22;23120;52.336;21.182;2023-06-14T03:21:05;13.70;95.30
17066;DHT22;23120;52.336;21.182;2023-06-14T03:23:35;13.70;95.50
17066;DHT22;23120;52.336;21.182;2023-06-14T03:26:04;13.80;95.50
17066;DHT22;23120;52.336;21.182;2023-06-14T03:28:31;13.70;95.40
17066;DHT22;23120;52.336;21.182;2023-06-14T03:30:59;13.70;95.40
17066;DHT22;23120;52.336;21.182;2023-06-14T03:33:30;13.80;95.20
17066;DHT22;23120;52.336;21.182;2023-06-14T03:35:57;13.80;95.50
17066;DHT22;23120;52.336;21.182;2023-06-14T03:38:26;13.80;95.30
17066;DHT22;23120;52.336;21.182;2023-06-14T03:40:52;13.80;95.40
17066;DHT22;23120;52.336;21.182;2023-06-14T03:43:21;13.80;95.20
17066;DHT22;23120;52.336;21.182;2023-06-14T03:45:48;13.80;95.50
17066;DHT22;23120;52.336;21.182;2023-06-14T03:48:14;13.80;95.70
17066;DHT22;23120;52.336;21.182;2023-06-14T03:50:42;13.80;95.60
17066;DHT22;23120;52.336;21.182;2023-06-14T03:53:10;13.80;95.60
17066;DHT22;23120;52.336;21.182;2023-06-14T03:55:40;13.90;95.50
17066;DHT22;23120;52.336;21.182;2023-06-14T03:58:07;13.90;95.60
17066;DHT22;23120;52.336;21.182;2023-06-14T04:00:37;13.90;96.00
17066;DHT22;23120;52.336;21.182;2023-06-14T04:03:04;13.90;95.90
17066;DHT22;23120;52.336;21.182;2023-06-14T04:05:31;13.90;95.90
17066;DHT22;23120;52.336;21.182;2023-06-14T04:07:58;13.90;96.00
17066;DHT22;23120;52.336;21.182;2023-06-14T04:10:26;14.00;95.90
17066;DHT22;23120;52.336;21.182;2023-06-14T04:12:53;14.00;96.10
17066;DHT22;23120;52.336;21.182;2023-06-14T04:15:21;14.00;96.10
17066;DHT22;23120;52.336;21.182;2023-06-14T04:17:52;14.10;96.40
17066;DHT22;23120;52.336;21.182;2023-06-14T04:20:23;14.00;96.70
17066;DHT22;23120;52.336;21.182;2023-06-14T04:22:50;14.10;96.90
17066;DHT22;23120;52.336;21.182;2023-06-14T04:25:18;14.10;96.70
17066;DHT22;23120;52.336;21.182;2023-06-14T04:27:46;14.10;96.70
17066;DHT22;23120;52.336;21.182;2023-06-14T04:30:13;14.20;96.70
17066;DHT22;23120;52.336;21.182;2023-06-14T04:32:46;14.20;96.50
17066;DHT22;23120;52.336;21.182;2023-06-14T04:35:15;14.20;96.50
17066;DHT22;23120;52.336;21.182;2023-06-14T04:37:44;14.30;96.60
17066;DHT22;23120;52.336;21.182;2023-06-14T04:40:12;14.30;96.80
17066;DHT22;23120;52.336;21.182;2023-06-14T04:42:40;14.30;96.70
17066;DHT22;23120;52.336;21.182;2023-06-14T04:45:10;14.30;96.70
17066;DHT22;23120;52.336;21.182;2023-06-14T04:47:39;14.30;96.70
17066;DHT22;23120;52.336;21.182;2023-06-14T04:50:08;14.40;96.60
17066;DHT22;23120;52.336;21.182;2023-06-14T04:52:37;14.30;96.80
17066;DHT22;23120;52.336;21.182;2023-06-14T04:55:05;14.40;96.80
17066;DHT22;23120;52.336;21.182;2023-06-14T04:57:33;14.40;96.80
17066;DHT22;23120;52.336;21.182;2023-06-14T05:00:01;14.40;97.00
17066;DHT22;23120;52.336;21.182;2023-06-14T05:02:31;14.40;97.00
17066;DHT22;23120;52.336;21.182;2023-06-14T05:04:59;14.50;96.80
17066;DHT22;23120;52.336;21.182;2023-06-14T05:07:27;14.50;97.20
17066;DHT22;23120;52.336;21.182;2023-06-14T05:09:55;14.60;97.10
17066;DHT22;23120;52.336;21.182;2023-06-14T05:12:22;14.60;97.10
17066;DHT22;23120;52.336;21.182;2023-06-14T05:14:49;14.60;97.40
17066;DHT22;23120;52.336;21.182;2023-06-14T05:17:18;14.60;97.60
17066;DHT22;23120;52.336;21.182;2023-06-14T05:19:46;14.70;97.40
17066;DHT22;23120;52.336;21.182;2023-06-14T05:22:12;14.70;97.40
17066;DHT22;23120;52.336;21.182;2023-06-14T05:24:39;14.70;97.40
17066;DHT22;23120;52.336;21.182;2023-06-14T05:27:08;14.80;97.40
17066;DHT22;23120;52.336;21.182;2023-06-14T05:29:36;14.80;97.30
17066;DHT22;23120;52.336;21.182;2023-06-14T05:32:03;14.80;97.60
17066;DHT22;23120;52.336;21.182;2023-06-14T05:34:30;14.90;97.70
17066;DHT22;23120;52.336;21.182;2023-06-14T05:36:57;14.90;97.50
17066;DHT22;23120;52.336;21.182;2023-06-14T05:39:24;14.90;97.40
17066;DHT22;23120;52.336;21.182;2023-06-14T05:41:51;15.00;97.30
17066;DHT22;23120;52.336;21.182;2023-06-14T05:44:19;15.10;97.00
17066;DHT22;23120;52.336;21.182;2023-06-14T05:46:46;15.20;96.90
17066;DHT22;23120;52.336;21.182;2023-06-14T05:49:13;15.20;96.70
17066;DHT22;23120;52.336;21.182;2023-06-14T05:51:39;15.20;96.60
17066;DHT22;23120;52.336;21.182;2023-06-14T05:54:06;15.30;96.70
17066;DHT22;23120;52.336;21.182;2023-06-14T05:56:33;15.30;96.60
17066;DHT22;23120;52.336;21.182;2023-06-14T05:59:00;15.40;96.60
17066;DHT22;23120;52.336;21.182;2023-06-14T06:01:28;15.40;96.70
17066;DHT22;23120;52.336;21.182;2023-06-14T06:03:56;15.40;96.60
17066;DHT22;23120;52.336;21.182;2023-06-14T06:06:22;15.40;96.60
17066;DHT22;23120;52.336;21.182;2023-06-14T06:08:49;15.50;96.70
17066;DHT22;23120;52.336;21.182;2023-06-14T06:11:16;15.60;96.30
17066;DHT22;23120;52.336;21.182;2023-06-14T06:13:43;15.60;96.30
17066;DHT22;23120;52.336;21.182;2023-06-14T06:16:09;15.70;96.40
17066;DHT22;23120;52.336;21.182;2023-06-14T06:18:38;15.80;96.20
17066;DHT22;23120;52.336;21.182;2023-06-14T06:21:05;15.80;95.90
17066;DHT22;23120;52.336;21.182;2023-06-14T06:23:32;15.90;96.20
17066;DHT22;23120;52.336;21.182;2023-06-14T06:25:59;16.00;95.90
17066;DHT22;23120;52.336;21.182;2023-06-14T06:28:26;16.00;95.70
17066;DHT22;23120;52.336;21.182;2023-06-14T06:30:52;16.10;95.80
17066;DHT22;23120;52.336;21.182;2023-06-14T06:33:21;16.20;96.20
17066;DHT22;23120;52.336;21.182;2023-06-14T06:35:49;16.20;95.80
17066;DHT22;23120;52.336;21.182;2023-06-14T06:38:16;16.30;96.00
17066;DHT22;23120;52.336;21.182;2023-06-14T06:40:44;16.30;95.80
17066;DHT22;23120;52.336;21.182;2023-06-14T06:43:11;16.30;95.60
17066;DHT22;23120;52.336;21.182;2023-06-14T06:45:43;16.40;95.40
17066;DHT22;23120;52.336;21.182;2023-06-14T06:48:10;16.40;95.10
17066;DHT22;23120;52.336;21.182;2023-06-14T06:50:37;16.40;95.40
17066;DHT22;23120;52.336;21.182;2023-06-14T06:53:06;16.50;95.70
17066;DHT22;23120;52.336;21.182;2023-06-14T06:55:33;16.50;95.40
17066;DHT22;23120;52.336;21.182;2023-06-14T06:58:00;16.50;95.00
17066;DHT22;23120;52.336;21.182;2023-06-14T07:00:27;16.50;95.00
17066;DHT22;23120;52.336;21.182;2023-06-14T07:02:54;16.60;95.00
17066;DHT22;23120;52.336;21.182;2023-06-14T07:05:20;16.60;95.00
17066;DHT22;23120;52.336;21.182;2023-06-14T07:07:47;16.60;95.30
17066;DHT22;23120;52.336;21.182;2023-06-14T07:10:16;16.60;95.10
17066;DHT22;23120;52.336;21.182;2023-06-14T07:12:43;16.60;95.60
17066;DHT22;23120;52.336;21.182;2023-06-14T07:15:11;16.60;95.70
17066;DHT22;23120;52.336;21.182;2023-06-14T07:17:39;16.70;95.40
17066;DHT22;23120;52.336;21.182;2023-06-14T07:20:07;16.70;95.80
17066;DHT22;23120;52.336;21.182;2023-06-14T07:22:39;16.80;96.00
17066;DHT22;23120;52.336;21.182;2023-06-14T07:25:08;16.90;95.80
17066;DHT22;23120;52.336;21.182;2023-06-14T07:27:36;17.00;95.70
17066;DHT22;23120;52.336;21.182;2023-06-14T07:30:04;17.10;96.30
17066;DHT22;23120;52.336;21.182;2023-06-14T07:32:30;17.20;95.90
17066;DHT22;23120;52.336;21.182;2023-06-14T07:34:57;17.30;95.60
17066;DHT22;23120;52.336;21.182;2023-06-14T07:37:24;17.40;96.10
17066;DHT22;23120;52.336;21.182;2023-06-14T07:39:51;17.50;95.50
17066;DHT22;23120;52.336;21.182;2023-06-14T07:42:18;17.60;95.70
17066;DHT22;23120;52.336;21.182;2023-06-14T07:44:46;17.70;95.80
17066;DHT22;23120;52.336;21.182;2023-06-14T07:47:12;17.90;95.70
17066;DHT22;23120;52.336;21.182;2023-06-14T07:49:39;18.00;95.80
17066;DHT22;23120;52.336;21.182;2023-06-14T07:52:07;18.10;96.00
17066;DHT22;23120;52.336;21.182;2023-06-14T07:54:34;18.20;95.50
17066;DHT22;23120;52.336;21.182;2023-06-14T07:57:01;18.30;95.80
17066;DHT22;23120;52.336;21.182;2023-06-14T07:59:28;18.50;95.50
17066;DHT22;23120;52.336;21.182;2023-06-14T08:01:56;18.70;95.40
17066;DHT22;23120;52.336;21.182;2023-06-14T08:04:23;18.90;97.10
17066;DHT22;23120;52.336;21.182;2023-06-14T08:06:50;19.20;96.10
17066;DHT22;23120;52.336;21.182;2023-06-14T08:09:17;19.50;96.40
17066;DHT22;23120;52.336;21.182;2023-06-14T08:11:44;19.60;95.10
17066;DHT22;23120;52.336;21.182;2023-06-14T08:14:11;19.70;94.40
17066;DHT22;23120;52.336;21.182;2023-06-14T08:16:38;19.70;94.60
17066;DHT22;23120;52.336;21.182;2023-06-14T08:19:06;19.80;93.70
17066;DHT22;23120;52.336;21.182;2023-06-14T08:21:32;19.80;93.30
17066;DHT22;23120;52.336;21.182;2023-06-14T08:24:02;20.10;93.20
17066;DHT22;23120;52.336;21.182;2023-06-14T08:26:29;20.00;92.50
17066;DHT22;23120;52.336;21.182;2023-06-14T08:28:57;20.10;92.00
17066;DHT22;23120;52.336;21.182;2023-06-14T08:31:25;20.00;92.80
17066;DHT22;23120;52.336;21.182;2023-06-14T08:33:53;20.10;91.60
17066;DHT22;23120;52.336;21.182;2023-06-14T08:36:21;20.10;91.40
17066;DHT22;23120;52.336;21.182;2023-06-14T08:38:48;19.90;90.90
17066;DHT22;23120;52.336;21.182;2023-06-14T08:41:20;19.90;91.30
17066;DHT22;23120;52.336;21.182;2023-06-14T08:43:47;20.00;92.10
17066;DHT22;23120;52.336;21.182;2023-06-14T08:46:17;20.20;91.90
17066;DHT22;23120;52.336;21.182;2023-06-14T08:48:46;20.00;91.10
17066;DHT22;23120;52.336;21.182;2023-06-14T08:51:14;20.00;90.60
17066;DHT22;23120;52.336;21.182;2023-06-14T08:53:44;20.00;91.20
17066;DHT22;23120;52.336;21.182;2023-06-14T08:56:11;20.00;91.40
17066;DHT22;23120;52.336;21.182;2023-06-14T08:58:40;20.10;91.40
17066;DHT22;23120;52.336;21.182;2023-06-14T09:01:11;20.10;91.70
17066;DHT22;23120;52.336;21.182;2023-06-14T09:03:40;20.10;91.50
17066;DHT22;23120;52.336;21.182;2023-06-14T09:06:07;20.20;91.40
17066;DHT22;23120;52.336;21.182;2023-06-14T09:08:40;20.40;91.00
17066;DHT22;23120;52.336;21.182;2023-06-14T09:11:10;20.60;90.90
17066;DHT22;23120;52.336;21.182;2023-06-14T09:13:38;20.80;90.60
17066;DHT22;23120;52.336;21.182;2023-06-14T09:16:05;20.80;90.30
17066;DHT22;23120;52.336;21.182;2023-06-14T09:18:35;20.90;90.10
17066;DHT22;23120;52.336;21.182;2023-06-14T09:21:02;20.90;89.80
17066;DHT22;23120;52.336;21.182;2023-06-14T09:23:29;21.00;90.00
17066;DHT22;23120;52.336;21.182;2023-06-14T09:26:00;21.00;89.30
17066;DHT22;23120;52.336;21.182;2023-06-14T09:28:28;20.90;88.40
17066;DHT22;23120;52.336;21.182;2023-06-14T09:30:55;21.00;88.80
17066;DHT22;23120;52.336;21.182;2023-06-14T09:33:22;21.00;88.40
17066;DHT22;23120;52.336;21.182;2023-06-14T09:35:51;20.90;88.00
17066;DHT22;23120;52.336;21.182;2023-06-14T09:38:18;20.90;88.10
17066;DHT22;23120;52.336;21.182;2023-06-14T09:40:45;20.90;86.80
17066;DHT22;23120;52.336;21.182;2023-06-14T09:43:12;20.80;87.20
17066;DHT22;23120;52.336;21.182;2023-06-14T09:45:40;21.00;87.50
17066;DHT22;23120;52.336;21.182;2023-06-14T09:48:11;20.90;87.20
17066;DHT22;23120;52.336;21.182;2023-06-14T09:50:44;21.00;87.20
17066;DHT22;23120;52.336;21.182;2023-06-14T09:53:12;21.10;86.80
17066;DHT22;23120;52.336;21.182;2023-06-14T09:55:41;21.20;86.30
17066;DHT22;23120;52.336;21.182;2023-06-14T09:58:10;21.30;86.10
17066;DHT22;23120;52.336;21.182;2023-06-14T10:00:40;21.30;85.10
17066;DHT22;23120;52.336;21.182;2023-06-14T10:03:12;21.20;84.50
17066;DHT22;23120;52.336;21.182;2023-06-14T10:05:43;21.30;84.60
17066;DHT22;23120;52.336;21.182;2023-06-14T10:08:13;21.20;83.40
17066;DHT22;23120;52.336;21.182;2023-06-14T10:10:42;21.30;83.30
17066;DHT22;23120;52.336;21.182;2023-06-14T10:13:09;21.30;84.10
17066;DHT22;23120;52.336;21.182;2023-06-14T10:15:44;21.40;82.50
17066;DHT22;23120;52.336;21.182;2023-06-14T10:18:19;21.30;83.20
17066;DHT22;23120;52.336;21.182;2023-06-14T10:20:55;21.20;81.80
17066;DHT22;23120;52.336;21.182;2023-06-14T10:23:26;21.20;82.70
17066;DHT22;23120;52.336;21.182;2023-06-14T10:25:57;21.30;82.90
17066;DHT22;23120;52.336;21.182;2023-06-14T10:28:25;21.30;82.80
17066;DHT22;23120;52.336;21.182;2023-06-14T10:31:04;21.30;83.40
17066;DHT22;23120;52.336;21.182;2023-06-14T10:33:31;21.00;80.80
17066;DHT22;23120;52.336;21.182;2023-06-14T10:36:23;21.00;81.10
17066;DHT22;23120;52.336;21.182;2023-06-14T10:38:57;21.10;81.40
17066;DHT22;23120;52.336;21.182;2023-06-14T10:41:25;21.10;81.40
17066;DHT22;23120;52.336;21.182;2023-06-14T10:44:00;20.70;80.50
17066;DHT22;23120;52.336;21.182;2023-06-14T10:46:38;20.90;80.40
17066;DHT22;23120;52.336;21.182;2023-06-14T10:49:05;21.00;80.70
17066;DHT22;23120;52.336;21.182;2023-06-14T10:51:39;21.00;80.90
17066;DHT22;23120;52.336;21.182;2023-06-14T10:54:12;21.20;81.00
17066;DHT22;23120;52.336;21.182;2023-06-14T10:56:45;21.30;81.20
17066;DHT22;23120;52.336;21.182;2023-06-14T10:59:12;21.20;79.50
17066;DHT22;23120;52.336;21.182;2023-06-14T11:01:51;21.30;80.30
17066;DHT22;23120;52.336;21.182;2023-06-14T11:04:31;21.50;79.40
17066;DHT22;23120;52.336;21.182;2023-06-14T11:07:10;21.50;79.50
17066;DHT22;23120;52.336;21.182;2023-06-14T11:09:58;21.80;79.90
17066;DHT22;23120;52.336;21.182;2023-06-14T11:12:33;22.10;78.40
17066;DHT22;23120;52.336;21.182;2023-06-14T11:15:02;22.20;77.40
17066;DHT22;23120;52.336;21.182;2023-06-14T11:17:32;22.30;76.90
17066;DHT22;23120;52.336;21.182;2023-06-14T11:20:09;22.60;76.40
17066;DHT22;23120;52.336;21.182;2023-06-14T11:22:39;22.80;76.80
17066;DHT22;23120;52.336;21.182;2023-06-14T11:25:08;22.90;74.40
17066;DHT22;23120;52.336;21.182;2023-06-14T11:27:35;22.80;72.40
17066;DHT22;23120;52.336;21.182;2023-06-14T11:30:03;22.90;72.10
17066;DHT22;23120;52.336;21.182;2023-06-14T11:32:32;22.90;72.60
17066;DHT22;23120;52.336;21.182;2023-06-14T11:34:59;23.00;72.00
17066;DHT22;23120;52.336;21.182;2023-06-14T11:37:27;23.10;72.60
17066;DHT22;23120;52.336;21.182;2023-06-14T11:39:57;23.30;73.50
17066;DHT22;23120;52.336;21.182;2023-06-14T11:42:24;23.40;73.40
17066;DHT22;23120;52.336;21.182;2023-06-14T11:44:53;23.40;72.50
17066;DHT22;23120;52.336;21.182;2023-06-14T11:47:20;23.50;72.70
17066;DHT22;23120;52.336;21.182;2023-06-14T11:49:49;23.50;71.40
17066;DHT22;23120;52.336;21.182;2023-06-14T11:52:17;23.40;70.40
17066;DHT22;23120;52.336;21.182;2023-06-14T11:54:44;23.30;70.40
17066;DHT22;23120;52.336;21.182;2023-06-14T11:57:14;23.20;70.40
17066;DHT22;23120;52.336;21.182;2023-06-14T11:59:41;23.30;70.40
17066;DHT22;23120;52.336;21.182;2023-06-14T12:02:10;23.50;72.10
17066;DHT22;23120;52.336;21.182;2023-06-14T12:04:41;23.40;72.30
17066;DHT22;23120;52.336;21.182;2023-06-14T12:07:13;23.50;72.10
17066;DHT22;23120;52.336;21.182;2023-06-14T12:09:41;23.70;72.50
17066;DHT22;23120;52.336;21.182;2023-06-14T12:12:10;23.90;73.10
17066;DHT22;23120;52.336;21.182;2023-06-14T12:14:41;24.10;73.10
17066;DHT22;23120;52.336;21.182;2023-06-14T12:17:08;24.30;73.20
17066;DHT22;23120;52.336;21.182;2023-06-14T12:19:42;24.30;70.20
17066;DHT22;23120;52.336;21.182;2023-06-14T12:22:09;24.40;69.60
17066;DHT22;23120;52.336;21.182;2023-06-14T12:24:38;24.50;69.40
17066;DHT22;23120;52.336;21.182;2023-06-14T12:27:06;24.60;67.80
17066;DHT22;23120;52.336;21.182;2023-06-14T12:29:32;24.80;67.60
17066;DHT22;23120;52.336;21.182;2023-06-14T12:31:59;24.80;65.40
17066;DHT22;23120;52.336;21.182;2023-06-14T12:34:26;24.60;63.80
17066;DHT22;23120;52.336;21.182;2023-06-14T12:36:53;24.60;64.10
17066;DHT22;23120;52.336;21.182;2023-06-14T12:39:21;24.80;65.70
17066;DHT22;23120;52.336;21.182;2023-06-14T12:41:49;24.90;64.70
17066;DHT22;23120;52.336;21.182;2023-06-14T12:44:17;25.10;66.10
17066;DHT22;23120;52.336;21.182;2023-06-14T12:46:44;25.20;64.10
17066;DHT22;23120;52.336;21.182;2023-06-14T12:49:11;25.10;61.70
17066;DHT22;23120;52.336;21.182;2023-06-14T12:51:39;25.20;62.90
17066;DHT22;23120;52.336;21.182;2023-06-14T12:54:06;25.30;63.50
17066;DHT22;23120;52.336;21.182;2023-06-14T12:56:33;25.40;62.20
17066;DHT22;23120;52.336;21.182;2023-06-14T12:59:02;25.50;62.00
17066;DHT22;23120;52.336;21.182;2023-06-14T13:01:29;25.60;61.70
17066;DHT22;23120;52.336;21.182;2023-06-14T13:03:56;25.80;62.10
17066;DHT22;23120;52.336;21.182;2023-06-14T13:06:23;25.80;59.50
17066;DHT22;23120;52.336;21.182;2023-06-14T13:08:50;25.60;58.10
17066;DHT22;23120;52.336;21.182;2023-06-14T13:11:20;25.80;59.30
17066;DHT22;23120;52.336;21.182;2023-06-14T13:13:47;25.90;57.50
17066;DHT22;23120;52.336;21.182;2023-06-14T13:16:15;26.10;58.10
17066;DHT22;23120;52.336;21.182;2023-06-14T13:18:42;26.20;59.00
17066;DHT22;23120;52.336;21.182;2023-06-14T13:21:08;26.40;59.70
17066;DHT22;23120;52.336;21.182;2023-06-14T13:23:35;26.50;58.90
17066;DHT22;23120;52.336;21.182;2023-06-14T13:26:02;26.50;57.00
17066;DHT22;23120;52.336;21.182;2023-06-14T13:28:29;26.20;57.20
17066;DHT22;23120;52.336;21.182;2023-06-14T13:30:57;26.40;57.70
17066;DHT22;23120;52.336;21.182;2023-06-14T13:33:25;26.50;58.30
17066;DHT22;23120;52.336;21.182;2023-06-14T13:35:52;26.50;57.40
17066;DHT22;23120;52.336;21.182;2023-06-14T13:38:19;26.70;57.90
17066;DHT22;23120;52.336;21.182;2023-06-14T13:40:46;26.80;58.30
17066;DHT22;23120;52.336;21.182;2023-06-14T13:43:13;26.70;57.10
17066;DHT22;23120;52.336;21.182;2023-06-14T13:45:39;26.70;56.50
17066;DHT22;23120;52.336;21.182;2023-06-14T13:48:06;26.50;56.40
17066;DHT22;23120;52.336;21.182;2023-06-14T13:50:34;26.60;57.70
17066;DHT22;23120;52.336;21.182;2023-06-14T13:53:01;26.60;57.80
17066;DHT22;23120;52.336;21.182;2023-06-14T13:55:28;26.60;57.30
17066;DHT22;23120;52.336;21.182;2023-06-14T13:57:55;26.70;57.60
17066;DHT22;23120;52.336;21.182;2023-06-14T14:00:23;26.80;57.90
17066;DHT22;23120;52.336;21.182;2023-06-14T14:02:50;26.50;58.30
17066;DHT22;23120;52.336;21.182;2023-06-14T14:05:17;26.90;57.20
17066;DHT22;23120;52.336;21.182;2023-06-14T14:07:47;26.10;54.10
17066;DHT22;23120;52.336;21.182;2023-06-14T14:10:14;26.20;57.60
17066;DHT22;23120;52.336;21.182;2023-06-14T14:12:41;26.40;57.20
17066;DHT22;23120;52.336;21.182;2023-06-14T14:15:08;26.50;56.70
17066;DHT22;23120;52.336;21.182;2023-06-14T14:17:38;26.80;56.40
17066;DHT22;23120;52.336;21.182;2023-06-14T14:20:06;27.00;55.10
17066;DHT22;23120;52.336;21.182;2023-06-14T14:22:33;27.20;55.40
17066;DHT22;23120;52.336;21.182;2023-06-14T14:25:01;27.40;54.90
17066;DHT22;23120;52.336;21.182;2023-06-14T14:27:28;27.10;54.70
17066;DHT22;23120;52.336;21.182;2023-06-14T14:29:55;26.80;54.40
17066;DHT22;23120;52.336;21.182;2023-06-14T14:32:21;26.80;55.10
17066;DHT22;23120;52.336;21.182;2023-06-14T14:34:48;26.60;55.40
17066;DHT22;23120;52.336;21.182;2023-06-14T14:37:16;26.50;55.00
17066;DHT22;23120;52.336;21.182;2023-06-14T14:39:44;26.10;55.30
17066;DHT22;23120;52.336;21.182;2023-06-14T14:42:12;26.30;55.00
17066;DHT22;23120;52.336;21.182;2023-06-14T14:44:39;26.20;55.70
17066;DHT22;23120;52.336;21.182;2023-06-14T14:47:06;26.20;55.50
17066;DHT22;23120;52.336;21.182;2023-06-14T14:49:33;25.90;57.50
17066;DHT22;23120;52.336;21.182;2023-06-14T14:52:00;25.70;59.00
17066;DHT22;23120;52.336;21.182;2023-06-14T14:54:28;25.50;57.20
17066;DHT22;23120;52.336;21.182;2023-06-14T14:56:55;25.00;59.60
17066;DHT22;23120;52.336;21.182;2023-06-14T14:59:23;25.00;60.00
17066;DHT22;23120;52.336;21.182;2023-06-14T15:01:49;25.20;59.40
17066;DHT22;23120;52.336;21.182;2023-06-14T15:04:18;25.20;59.60
17066;DHT22;23120;52.336;21.182;2023-06-14T15:06:45;25.50;60.10
17066;DHT22;23120;52.336;21.182;2023-06-14T15:09:11;25.70;61.40
17066;DHT22;23120;52.336;21.182;2023-06-14T15:11:38;25.40;59.10
17066;DHT22;23120;52.336;21.182;2023-06-14T15:14:05;25.70;61.70
17066;DHT22;23120;52.336;21.182;2023-06-14T15:16:33;25.40;58.50
17066;DHT22;23120;52.336;21.182;2023-06-14T15:19:00;25.20;59.20
17066;DHT22;23120;52.336;21.182;2023-06-14T15:21:27;25.10;60.50